Time;durP1;ratioP1;P1;durP2;ratioP2;P2;SDS_P1;SDS_P2;PMS_P1;PMS_P2;Temp;Humidity;BMP_temperature;BMP_pressure;BME280_temperature;BME280_humidity;BME280_pressure;Samples;Min_cycle;Max_cycle;Signal;HPM_P1;HPM_P2
2023/10/12 00:02:13;;;;;;;;;;;;;;;21.32;28.17;98870.91;4954299;28;1318;-76
2023/10/12 00:04:43;;;;;;;;;;;;;;;21.30;28.01;98870.53;5001011;28;977;-76
2023/10/12 00:07:25;;;;;;;;;;;;;;;20.72;29.05;98861.00;5000465;28;952;-75
2023/10/12 00:10:01;;;;;;;;;;;;;;;20.74;28.90;98858.56;4986743;28;1168;-76
2023/10/12 00:12:26;;;;;;;;;;;;;;;20.90;28.43;98865.69;5001856;28;851;-76
2023/10/12 00:14:54;;;;;;;;;;;;;;;20.58;29.18;98855.50;5000747;28;982;-76
2023/10/12 00:17:20;;;;;;;;;;;;;;;20.93;28.92;98862.00;4984526;28;1879;-76
2023/10/12 00:19:46;;;;;;;;;;;;;;;20.90;28.70;98860.03;5018147;28;1011;-76
2023/10/12 00:22:13;;;;;;;;;;;;;;;20.48;29.28;98857.19;5000650;28;1023;-77
2023/10/12 00:24:39;;;;;;;;;;;;;;;20.80;28.90;98851.22;5017855;28;1059;-76
2023/10/12 00:27:05;;;;;;;;;;;;;;;20.33;29.50;98849.22;5000174;28;961;-76
2023/10/12 00:29:32;;;;;;;;;;;;;;;20.54;29.10;98849.84;4999858;28;981;-76
2023/10/12 00:31:58;;;;;;;;;;;;;;;20.54;29.05;98844.19;4983558;28;951;-76
2023/10/12 00:34:25;;;;;;;;;;;;;;;20.54;29.19;98843.41;4983997;28;1165;-76
2023/10/12 00:36:57;;;;;;;;;;;;;;;20.58;29.23;98838.53;5014481;28;1103;-75
2023/10/12 00:39:29;;;;;;;;;;;;;;;20.51;29.48;98838.56;5020512;28;1043;-76
2023/10/12 00:41:55;;;;;;;;;;;;;;;20.34;29.56;98839.50;5020487;28;956;-77
2023/10/12 00:44:26;;;;;;;;;;;;;;;20.40;29.16;98841.47;5003238;28;1118;-76
2023/10/12 00:49:26;;;;;;;;;;;;;;;20.45;29.36;98832.53;5003976;28;1093;-76
2023/10/12 00:52:07;;;;;;;;;;;;;;;20.28;29.72;98836.31;5003814;28;992;-76
2023/10/12 00:54:41;;;;;;;;;;;;;;;20.60;29.18;98836.06;5004255;28;994;-76
2023/10/12 00:57:08;;;;;;;;;;;;;;;20.53;29.08;98827.66;4987991;28;1906;-76
2023/10/12 00:59:34;;;;;;;;;;;;;;;20.27;29.64;98835.53;5019219;28;993;-76
2023/10/12 01:02:08;;;;;;;;;;;;;;;20.50;29.09;98825.66;5019733;28;1020;-76
2023/10/12 01:04:34;;;;;;;;;;;;;;;20.48;29.17;98833.78;5003554;28;1039;-77
2023/10/12 01:07:00;;;;;;;;;;;;;;;21.16;28.00;98833.06;5002880;28;1140;-76
2023/10/12 01:09:29;;;;;;;;;;;;;;;21.32;27.96;98836.94;5019097;28;1076;-76
2023/10/12 01:11:58;;;;;;;;;;;;;;;21.44;27.70;98826.28;5002977;28;1160;-76
2023/10/12 01:14:28;;;;;;;;;;;;;;;20.99;28.12;98826.41;4979282;28;1230;-76
2023/10/12 01:16:57;;;;;;;;;;;;;;;20.70;28.78;98829.50;4962801;28;993;-76
2023/10/12 01:19:23;;;;;;;;;;;;;;;20.64;28.56;98825.53;4963146;28;1036;-76
2023/10/12 01:21:49;;;;;;;;;;;;;;;20.39;28.98;98824.94;4962762;28;998;-76
2023/10/12 01:24:15;;;;;;;;;;;;;;;20.81;28.70;98830.19;4955938;29;1006;-76
2023/10/12 01:26:43;;;;;;;;;;;;;;;20.58;28.82;98827.22;4924490;29;1275;-76
2023/10/12 01:29:17;;;;;;;;;;;;;;;20.40;29.17;98821.69;4940554;29;1449;-76
2023/10/12 01:31:47;;;;;;;;;;;;;;;20.53;29.05;98827.66;4910456;29;975;-76
2023/10/12 01:34:13;;;;;;;;;;;;;;;20.59;28.67;98823.16;4940719;29;977;-75
2023/10/12 01:36:43;;;;;;;;;;;;;;;20.45;29.15;98823.25;4940282;29;1285;-76
2023/10/12 01:39:15;;;;;;;;;;;;;;;20.44;29.01;98825.28;4955687;28;1985;-76
2023/10/12 01:41:41;;;;;;;;;;;;;;;20.48;29.22;98822.47;4940934;29;993;-77
2023/10/12 01:44:10;;;;;;;;;;;;;;;20.52;29.13;98820.38;4924400;29;1188;-76
2023/10/12 01:46:36;;;;;;;;;;;;;;;20.53;29.14;98819.19;4927868;28;1355;-76
2023/10/12 01:49:01;;;;;;;;;;;;;;;21.01;28.53;98823.94;4959400;28;1137;-76
2023/10/12 01:51:29;;;;;;;;;;;;;;;21.07;28.27;98822.25;4959208;28;1244;-75
2023/10/12 01:53:55;;;;;;;;;;;;;;;21.06;28.12;98821.44;4959254;28;1128;-76
2023/10/12 01:56:20;;;;;;;;;;;;;;;20.72;28.77;98823.44;4981969;28;1139;-76
2023/10/12 01:58:48;;;;;;;;;;;;;;;20.49;29.19;98818.41;4968209;28;1986;-75
2023/10/12 02:01:18;;;;;;;;;;;;;;;20.47;29.06;98821.66;4987176;28;1268;-76
2023/10/12 02:03:44;;;;;;;;;;;;;;;20.75;28.69;98814.91;4987462;28;909;-76
2023/10/12 02:06:16;;;;;;;;;;;;;;;20.40;29.46;98812.41;4970815;28;1191;-76
2023/10/12 02:11:11;;;;;;;;;;;;;;;20.58;28.96;98815.91;4986954;28;1413;-76
2023/10/12 02:13:37;;;;;;;;;;;;;;;20.45;29.24;98811.94;4970484;28;1112;-77
2023/10/12 02:16:03;;;;;;;;;;;;;;;20.46;29.36;98813.53;4986774;28;1243;-76
2023/10/12 02:18:30;;;;;;;;;;;;;;;20.43;29.53;98817.22;4981887;28;1902;-76
2023/10/12 02:26:40;;;;;;;;;;;;;;;20.18;29.54;98812.59;4959295;28;1294;-76
2023/10/12 02:34:18;;;;;;;;;;;;;;;21.31;27.82;98807.03;4959144;29;1282;-75
2023/10/12 02:37:00;;;;;;;;;;;;;;;20.50;29.45;98803.84;4972658;28;1155;-75
2023/10/12 02:39:27;;;;;;;;;;;;;;;20.48;29.22;98797.81;4962379;28;1289;-76
2023/10/12 02:42:10;;;;;;;;;;;;;;;20.37;29.37;98804.78;4962136;28;1198;-75
2023/10/12 02:47:22;;;;;;;;;;;;;;;20.48;29.47;98806.31;4978070;28;989;-75
2023/10/12 02:49:48;;;;;;;;;;;;;;;20.45;29.28;98801.44;4946665;29;1176;-76
2023/10/12 02:52:14;;;;;;;;;;;;;;;20.73;29.12;98800.41;4939673;28;1319;-76
2023/10/12 02:54:50;;;;;;;;;;;;;;;20.96;28.65;98807.44;4939677;29;1462;-76
2023/10/12 02:57:23;;;;;;;;;;;;;;;20.57;29.25;98805.00;4923654;29;1978;-76
2023/10/12 02:59:56;;;;;;;;;;;;;;;20.63;29.37;98809.81;4925063;29;1136;-77
2023/10/12 03:02:23;;;;;;;;;;;;;;;20.51;29.39;98799.00;4927878;29;1128;-76
2023/10/12 03:04:49;;;;;;;;;;;;;;;20.27;29.92;98803.63;4926794;29;1231;-76
2023/10/12 03:07:22;;;;;;;;;;;;;;;20.40;29.52;98798.25;4926810;29;1217;-76
2023/10/12 03:09:58;;;;;;;;;;;;;;;20.57;29.39;98802.97;4941640;29;1222;-77
2023/10/12 03:12:23;;;;;;;;;;;;;;;20.53;29.43;98796.56;4942649;29;1240;-76
2023/10/12 03:14:52;;;;;;;;;;;;;;;20.66;28.97;98800.47;4926739;29;1184;-76
2023/10/12 03:17:23;;;;;;;;;;;;;;;20.53;29.61;98802.22;4942580;29;1993;-76
2023/10/12 03:20:15;;;;;;;;;;;;;;;20.37;29.81;98797.09;4944577;28;1152;-75
2023/10/12 03:22:35;;;;;;;;;;;;;;;20.62;29.17;98802.50;4976137;28;984;-76
2023/10/12 03:25:20;;;;;;;;;;;;;;;20.35;29.63;98799.50;4977155;28;1124;-75
2023/10/12 03:27:52;;;;;;;;;;;;;;;20.36;29.63;98797.50;4999433;28;1332;-76
2023/10/12 03:30:24;;;;;;;;;;;;;;;20.38;29.58;98797.88;5022065;28;941;-76
2023/10/12 03:32:49;;;;;;;;;;;;;;;20.61;29.47;98803.75;5004496;28;1315;-75
2023/10/12 03:35:22;;;;;;;;;;;;;;;20.38;29.74;98790.22;4989175;28;1804;-76
2023/10/12 03:38:00;;;;;;;;;;;;;;;20.51;29.62;98793.34;5011380;28;1899;-76
2023/10/12 03:43:16;;;;;;;;;;;;;;;21.23;28.31;98805.47;5024460;28;1731;-76
2023/10/12 03:48:33;;;;;;;;;;;;;;;20.80;28.69;98796.69;5035719;28;1625;-76
2023/10/12 03:51:02;;;;;;;;;;;;;;;20.66;28.62;98786.31;5019523;28;984;-75
2023/10/12 03:53:31;;;;;;;;;;;;;;;20.54;28.92;98798.97;4995452;28;1814;-75
2023/10/12 03:55:58;;;;;;;;;;;;;;;20.33;29.43;98793.50;4993063;28;1561;-75
2023/10/12 03:58:24;;;;;;;;;;;;;;;20.64;29.13;98790.81;4966336;28;1975;-76
2023/10/12 04:01:23;;;;;;;;;;;;;;;20.61;29.11;98786.78;4993183;28;1694;-76
2023/10/12 04:03:39;;;;;;;;;;;;;;;20.62;29.36;98791.22;4991211;28;1595;-76
2023/10/12 04:06:23;;;;;;;;;;;;;;;20.47;29.31;98789.78;4963261;28;1529;-76
2023/10/12 04:08:58;;;;;;;;;;;;;;;20.53;29.47;98796.56;4975759;28;1625;-75
2023/10/12 04:17:07;;;;;;;;;;;;;;;20.33;29.82;98798.34;4972748;28;1598;-76
2023/10/12 04:19:34;;;;;;;;;;;;;;;20.46;29.44;98791.75;4976097;28;1461;-76
2023/10/12 04:22:15;;;;;;;;;;;;;;;20.54;29.48;98798.16;4992107;28;1473;-76
2023/10/12 04:24:45;;;;;;;;;;;;;;;20.59;29.23;98796.91;5015793;28;1533;-76
2023/10/12 04:29:58;;;;;;;;;;;;;;;21.17;28.41;98795.84;4986116;28;1615;-76
2023/10/12 04:32:51;;;;;;;;;;;;;;;21.42;27.86;98789.09;4964011;28;1447;-76
2023/10/12 04:35:21;;;;;;;;;;;;;;;20.81;29.13;98793.44;4976635;28;1533;-76
2023/10/12 04:37:46;;;;;;;;;;;;;;;20.52;29.23;98794.94;5014732;28;1989;-76
2023/10/12 04:43:00;;;;;;;;;;;;;;;20.16;29.95;98786.78;5014460;28;1480;-76
2023/10/12 04:45:28;;;;;;;;;;;;;;;20.38;29.74;98789.41;5015077;28;1622;-76
2023/10/12 04:48:06;;;;;;;;;;;;;;;20.57;29.50;98786.00;4998476;28;1489;-76
2023/10/12 04:50:44;;;;;;;;;;;;;;;20.90;28.96;98792.94;5014574;28;1671;-76
2023/10/12 04:53:12;;;;;;;;;;;;;;;20.61;29.51;98798.09;5014229;28;1524;-75
2023/10/12 04:55:41;;;;;;;;;;;;;;;20.57;29.32;98797.31;5014991;28;1676;-76
2023/10/12 04:58:15;;;;;;;;;;;;;;;20.32;29.55;98796.75;4971186;28;1989;-75
2023/10/12 05:00:55;;;;;;;;;;;;;;;20.38;29.74;98792.25;5014288;28;1651;-77
2023/10/12 05:03:26;;;;;;;;;;;;;;;20.49;29.66;98796.59;5014021;28;1663;-76
2023/10/12 05:06:08;;;;;;;;;;;;;;;20.16;30.29;98802.91;4994644;28;1524;-76
2023/10/12 05:08:34;;;;;;;;;;;;;;;20.50;29.39;98800.22;5023799;28;1595;-76
2023/10/12 05:11:00;;;;;;;;;;;;;;;20.37;29.83;98804.78;5053793;28;1452;-75
2023/10/12 05:13:26;;;;;;;;;;;;;;;20.38;29.52;98812.03;5038140;28;1556;-75
2023/10/12 05:15:55;;;;;;;;;;;;;;;20.57;29.55;98810.66;5035295;28;1483;-76
2023/10/12 05:18:21;;;;;;;;;;;;;;;20.54;29.58;98803.81;5035306;28;1914;-75
2023/10/12 05:20:46;;;;;;;;;;;;;;;20.39;29.73;98811.59;5027160;28;1691;-76
2023/10/12 05:23:12;;;;;;;;;;;;;;;20.48;29.53;98806.31;5053193;28;1617;-76
2023/10/12 05:28:27;;;;;;;;;;;;;;;21.04;28.78;98814.63;4992775;28;1497;-76
2023/10/12 05:30:59;;;;;;;;;;;;;;;21.25;28.38;98819.22;4993072;28;1517;-76
2023/10/12 05:33:43;;;;;;;;;;;;;;;20.75;29.14;98811.28;4966177;28;1553;-76
2023/10/12 05:36:13;;;;;;;;;;;;;;;20.38;29.60;98806.38;4976106;28;1513;-76
2023/10/12 05:38:39;;;;;;;;;;;;;;;20.21;29.55;98825.91;4990259;28;1902;-76
2023/10/12 05:41:08;;;;;;;;;;;;;;;20.38;29.40;98812.03;4993111;28;1669;-77
2023/10/12 05:43:39;;;;;;;;;;;;;;;20.66;28.97;98817.44;4973855;28;1522;-76
2023/10/12 05:46:10;;;;;;;;;;;;;;;20.49;29.65;98821.25;4977269;28;1730;-76
2023/10/12 05:48:41;;;;;;;;;;;;;;;20.46;29.63;98820.03;4973481;28;1554;-76
2023/10/12 05:51:09;;;;;;;;;;;;;;;20.43;29.42;98811.56;4959289;28;1240;-75
2023/10/12 05:53:35;;;;;;;;;;;;;;;20.35;29.54;98819.28;4986433;28;1419;-76
2023/10/12 05:56:01;;;;;;;;;;;;;;;20.64;29.13;98830.41;4994596;28;933;-76
2023/10/12 05:58:26;;;;;;;;;;;;;;;20.63;29.35;98829.59;4978074;28;1973;-77
2023/10/12 06:00:52;;;;;;;;;;;;;;;20.60;29.16;98829.63;4994333;28;1007;-75
2023/10/12 06:03:20;;;;;;;;;;;;;;;20.54;29.54;98838.56;4975966;28;1446;-76
2023/10/12 06:05:46;;;;;;;;;;;;;;;20.30;29.82;98834.69;5000549;28;1660;-76
2023/10/12 06:08:12;;;;;;;;;;;;;;;20.81;29.29;98835.84;5008052;28;1521;-76
2023/10/12 06:10:41;;;;;;;;;;;;;;;21.14;28.68;98830.69;5000192;28;1368;-76
2023/10/12 06:13:09;;;;;;;;;;;;;;;21.43;28.34;98841.66;5002309;28;1298;-76
2023/10/12 06:15:40;;;;;;;;;;;;;;;21.00;28.88;98842.16;5017489;28;1011;-76
2023/10/12 06:18:07;;;;;;;;;;;;;;;20.73;29.34;98840.00;5017625;28;1902;-76
2023/10/12 06:20:46;;;;;;;;;;;;;;;20.38;29.68;98846.75;4998025;28;1204;-76
2023/10/12 06:23:13;;;;;;;;;;;;;;;20.60;29.38;98836.06;4999302;28;975;-76
2023/10/12 06:25:39;;;;;;;;;;;;;;;20.54;29.63;98843.41;4990468;28;1427;-75
2023/10/12 06:28:14;;;;;;;;;;;;;;;20.40;29.89;98843.50;4978261;28;1049;-76
2023/10/12 06:30:42;;;;;;;;;;;;;;;20.60;29.50;98841.72;5029436;28;963;-75
2023/10/12 06:33:12;;;;;;;;;;;;;;;20.59;29.57;98836.50;4997395;28;961;-76
2023/10/12 06:35:51;;;;;;;;;;;;;;;20.77;29.40;98837.91;5009232;28;1507;-76
2023/10/12 06:38:22;;;;;;;;;;;;;;;20.68;29.46;98843.28;5000876;28;1972;-76
2023/10/12 06:40:48;;;;;;;;;;;;;;;20.51;29.91;98844.22;4995589;28;1634;-77
2023/10/12 06:45:52;;;;;;;;;;;;;;;20.60;29.60;98841.72;5033970;28;1671;-76
2023/10/12 06:51:02;;;;;;;;;;;;;;;20.55;29.80;98834.50;5003831;28;1470;-76
2023/10/12 06:53:34;;;;;;;;;;;;;;;21.20;28.71;98839.50;4975279;28;1430;-76
2023/10/12 07:01:39;;;;;;;;;;;;;;;20.96;28.89;98841.38;4940239;29;1491;-76
2023/10/12 07:04:12;;;;;;;;;;;;;;;20.91;28.93;98839.00;4941669;29;1687;-76
2023/10/12 07:06:39;;;;;;;;;;;;;;;20.75;29.34;98834.72;4942090;29;1530;-76
2023/10/12 07:09:06;;;;;;;;;;;;;;;20.45;29.58;98823.25;4917459;29;1602;-75
2023/10/12 07:11:31;;;;;;;;;;;;;;;20.51;29.92;98832.91;4945468;29;1685;-75
2023/10/12 07:14:04;;;;;;;;;;;;;;;20.46;29.86;98831.34;4915081;29;1678;-76
2023/10/12 07:16:31;;;;;;;;;;;;;;;20.90;29.04;98831.75;4939992;29;1495;-76
2023/10/12 07:18:58;;;;;;;;;;;;;;;20.34;30.26;98825.38;4941517;29;1970;-76
2023/10/12 07:21:23;;;;;;;;;;;;;;;20.48;29.77;98822.47;4949192;28;1490;-77
2023/10/12 07:23:52;;;;;;;;;;;;;;;20.52;29.77;98831.69;4946389;28;1657;-76
2023/10/12 07:26:18;;;;;;;;;;;;;;;20.60;29.79;98830.41;4984877;28;1470;-76
2023/10/12 07:28:49;;;;;;;;;;;;;;;20.45;29.91;98828.91;5001528;28;1635;-76
2023/10/12 07:41:54;;;;;;;;;;;;;;;21.04;29.00;98825.94;4949004;28;1435;-76
2023/10/12 07:44:20;;;;;;;;;;;;;;;20.66;29.82;98823.09;4942697;28;1670;-76
2023/10/12 07:46:46;;;;;;;;;;;;;;;20.68;29.60;98820.66;4925269;29;1544;-77
2023/10/12 07:57:22;;;;;;;;;;;;;;;20.39;30.16;98819.28;4932151;29;1989;-77
2023/10/12 08:05:16;;;;;;;;;;;;;;;20.70;29.58;98821.03;4899895;29;1525;-76
2023/10/12 08:13:26;;;;;;;;;;;;;;;20.67;29.60;98824.69;4915050;29;1602;-76
2023/10/12 08:23:57;;;;;;;;;;;;;;;20.54;29.84;98809.47;4922213;29;1654;-76
2023/10/12 08:29:59;;;;;;;;;;;;;;;20.34;30.32;98811.25;4915194;29;1539;-76
2023/10/12 08:32:04;;;;;;;;;;;;;;;20.39;30.12;98807.97;4893563;29;1670;-76
2023/10/12 08:37:17;;;;;;;;;;;;;;;20.48;29.84;98799.84;4911289;29;1464;-76
2023/10/12 08:39:50;;;;;;;;;;;;;;;20.42;30.06;98807.16;4912762;29;1665;-76
2023/10/12 08:44:58;;;;;;;;;;;;;;;20.51;30.05;98810.31;4955645;29;1626;-75
2023/10/12 08:47:48;;;;;;;;;;;;;;;20.43;30.21;98808.75;4955845;29;1659;-76
2023/10/12 08:52:50;;;;;;;;;;;;;;;20.42;30.06;98795.84;4954926;29;1681;-76
2023/10/12 08:55:19;;;;;;;;;;;;;;;20.47;30.02;98798.25;4940261;29;1515;-76
2023/10/12 08:57:52;;;;;;;;;;;;;;;20.21;30.63;98796.81;4922040;29;1980;-76
2023/10/12 09:00:25;;;;;;;;;;;;;;;20.33;30.36;98804.00;4939946;29;1446;-76
2023/10/12 09:02:53;;;;;;;;;;;;;;;20.45;30.16;98795.00;4941479;29;1670;-76
2023/10/12 09:05:24;;;;;;;;;;;;;;;21.23;29.11;98788.50;4969216;28;1604;-77
2023/10/12 09:08:39;;;;;;;;;;;;;;;21.43;28.93;98796.38;4994017;28;1620;-76
2023/10/12 09:13:33;;;;;;;;;;;;;;;21.04;29.38;98789.97;4971973;28;1542;-76
2023/10/12 09:16:00;;;;;;;;;;;;;;;20.67;30.10;98785.09;4994103;28;1623;-77
2023/10/12 09:18:30;;;;;;;;;;;;;;;20.67;29.97;98785.09;4966415;28;1989;-76
2023/10/12 09:23:46;;;;;;;;;;;;;;;20.75;29.93;98775.31;4999138;28;1490;-76
2023/10/12 09:26:15;;;;;;;;;;;;;;;20.60;29.91;98773.06;5008869;28;1855;-75
2023/10/12 09:31:13;;;;;;;;;;;;;;;20.51;30.25;98750.94;5000374;28;1593;-76
2023/10/12 09:33:54;;;;;;;;;;;;;;;20.66;29.92;98760.88;4999871;28;1724;-77
2023/10/12 09:36:21;;;;;;;;;;;;;;;20.53;29.95;98751.34;4996146;28;1492;-76
2023/10/12 09:38:46;;;;;;;;;;;;;;;20.44;30.27;98748.16;5010275;28;1910;-76
2023/10/12 09:41:16;;;;;;;;;;;;;;;20.27;30.58;98764.88;5010970;28;1464;-76
2023/10/12 09:43:44;;;;;;;;;;;;;;;20.16;30.54;98744.41;4996809;28;1529;-76
2023/10/12 09:46:13;;;;;;;;;;;;;;;20.15;30.86;98747.63;4998022;28;1621;-76
2023/10/12 09:48:39;;;;;;;;;;;;;;;21.19;29.23;98747.31;5014786;28;1513;-76
2023/10/12 09:51:07;;;;;;;;;;;;;;;21.49;28.95;98743.69;4974239;28;1755;-76
2023/10/12 09:53:40;;;;;;;;;;;;;;;21.31;29.07;98736.28;4974419;28;1668;-76
2023/10/12 09:56:15;;;;;;;;;;;;;;;20.96;29.51;98734.66;4974581;28;1626;-76
2023/10/12 09:58:51;;;;;;;;;;;;;;;20.90;29.69;98732.75;4954231;29;1903;-76
2023/10/12 10:01:22;;;;;;;;;;;;;;;20.75;29.79;98720.78;4946822;29;1616;-77
2023/10/12 10:03:48;;;;;;;;;;;;;;;20.55;30.22;98726.25;4938599;29;1647;-76
2023/10/12 10:06:28;;;;;;;;;;;;;;;20.59;29.95;98715.72;4937738;29;1669;-76
2023/10/12 10:11:41;;;;;;;;;;;;;;;20.80;29.70;98709.81;4935947;29;1642;-76
2023/10/12 10:14:13;;;;;;;;;;;;;;;20.58;30.05;98702.00;4935728;29;1542;-76
2023/10/12 10:16:47;;;;;;;;;;;;;;;20.34;30.32;98698.19;4936575;29;2029;-76
2023/10/12 10:19:13;;;;;;;;;;;;;;;20.74;29.72;98694.53;4936727;29;1902;-75
2023/10/12 10:21:52;;;;;;;;;;;;;;;20.65;29.55;98694.25;4939487;28;1528;-76
2023/10/12 10:24:25;;;;;;;;;;;;;;;20.07;30.97;98695.25;4981450;28;1529;-76
2023/10/12 10:26:58;;;;;;;;;;;;;;;20.45;30.07;98690.41;4981069;28;1419;-76
2023/10/12 10:29:41;;;;;;;;;;;;;;;20.32;30.22;98683.69;4981043;28;1413;-75
2023/10/12 10:32:07;;;;;;;;;;;;;;;20.34;30.29;98681.22;4997129;28;1634;-76
2023/10/12 10:34:34;;;;;;;;;;;;;;;20.43;30.09;98684.38;4981092;28;1677;-76
2023/10/12 10:37:00;;;;;;;;;;;;;;;20.48;30.12;98675.47;4995649;28;1498;-75
2023/10/12 10:39:28;;;;;;;;;;;;;;;20.72;29.81;98673.53;4983578;28;1963;-76
2023/10/12 10:41:55;;;;;;;;;;;;;;;21.37;29.08;98673.50;4983140;28;1746;-76
2023/10/12 10:44:26;;;;;;;;;;;;;;;21.31;29.08;98670.38;5002764;28;1481;-76
2023/10/12 10:47:01;;;;;;;;;;;;;;;21.07;29.56;98666.63;4996665;28;1682;-77
2023/10/12 10:49:32;;;;;;;;;;;;;;;20.74;30.00;98660.59;5030141;28;1653;-76
2023/10/12 10:52:20;;;;;;;;;;;;;;;20.72;30.07;98662.22;5023779;28;1648;-75
2023/10/12 10:54:56;;;;;;;;;;;;;;;20.67;29.83;98666.31;5035596;28;1672;-76
2023/10/12 10:57:25;;;;;;;;;;;;;;;20.64;29.96;98655.88;5022886;28;1910;-75
2023/10/12 10:59:51;;;;;;;;;;;;;;;20.53;30.35;98649.56;5032893;28;1651;-75
2023/10/12 11:02:18;;;;;;;;;;;;;;;20.68;29.89;98667.16;5054673;28;1709;-76
2023/10/12 11:04:45;;;;;;;;;;;;;;;20.51;30.01;98658.44;5032642;28;1475;-75
2023/10/12 11:07:13;;;;;;;;;;;;;;;20.45;30.38;98642.34;5015748;28;1542;-76
2023/10/12 11:12:20;;;;;;;;;;;;;;;20.52;30.12;98645.09;5035689;28;1457;-76
2023/10/12 11:17:41;;;;;;;;;;;;;;;20.29;30.21;98629.59;4961033;28;1918;-76
2023/10/12 11:20:08;;;;;;;;;;;;;;;20.21;30.74;98633.75;4958265;28;1510;-76
2023/10/12 11:22:34;;;;;;;;;;;;;;;20.21;30.54;98630.91;4960158;28;1683;-75
2023/10/12 11:25:01;;;;;;;;;;;;;;;20.46;30.06;98626.97;4958451;28;1538;-76
2023/10/12 11:27:33;;;;;;;;;;;;;;;20.43;30.11;98628.63;4975052;28;1534;-75
2023/10/12 11:30:06;;;;;;;;;;;;;;;20.43;30.07;98622.19;4957036;28;1478;-77
2023/10/12 11:32:33;;;;;;;;;;;;;;;20.27;30.46;98617.91;4956929;28;1609;-76
2023/10/12 11:35:01;;;;;;;;;;;;;;;20.67;30.11;98609.78;4947660;28;1487;-76
2023/10/12 11:37:29;;;;;;;;;;;;;;;21.54;28.94;98608.09;4933646;28;1995;-75
2023/10/12 11:39:55;;;;;;;;;;;;;;;21.50;28.81;98615.03;4943978;28;1625;-75
2023/10/12 11:42:20;;;;;;;;;;;;;;;21.08;29.61;98612.44;4943033;28;1345;-76
2023/10/12 11:44:46;;;;;;;;;;;;;;;20.74;29.79;98603.25;4960238;28;1653;-76
2023/10/12 11:47:24;;;;;;;;;;;;;;;20.65;30.23;98598.09;4960213;28;1650;-76
2023/10/12 11:49:55;;;;;;;;;;;;;;;20.92;29.72;98608.63;4949590;28;1688;-76
2023/10/12 11:52:29;;;;;;;;;;;;;;;20.89;29.75;98598.19;4959238;28;1426;-76
2023/10/12 11:55:06;;;;;;;;;;;;;;;20.73;29.88;98602.44;4981947;28;1700;-77
2023/10/12 11:57:38;;;;;;;;;;;;;;;20.58;29.91;98601.03;5031890;28;1902;-76
2023/10/12 12:00:20;;;;;;;;;;;;;;;20.50;30.15;98605.97;5017739;28;1689;-76
2023/10/12 12:02:52;;;;;;;;;;;;;;;20.73;30.08;98599.63;5001833;28;1788;-76
2023/10/12 12:05:22;;;;;;;;;;;;;;;21.06;30.06;98597.13;5021856;28;1767;-72
2023/10/12 12:07:51;;;;;;;;;;;;;;;21.62;30.66;98597.47;5033204;28;1812;-72
2023/10/12 12:13:12;;;;;;;;;;;;;;;21.78;31.76;98600.41;4979074;28;1764;-74
2023/10/12 12:15:43;;;;;;;;;;;;;;;21.74;31.60;98591.16;4982789;28;1505;-74
2023/10/12 12:21:03;;;;;;;;;;;;;;;20.99;32.04;98592.38;4966806;28;1586;-75
2023/10/12 12:23:33;;;;;;;;;;;;;;;20.88;32.20;98574.75;4970841;28;1533;-74
2023/10/12 12:26:07;;;;;;;;;;;;;;;20.86;32.11;98582.06;4973317;28;1686;-75
2023/10/12 12:28:33;;;;;;;;;;;;;;;20.85;31.67;98575.59;4957804;28;1463;-76
2023/10/12 12:31:03;;;;;;;;;;;;;;;20.70;31.71;98563.69;4958877;28;1681;-74
2023/10/12 12:33:29;;;;;;;;;;;;;;;20.57;31.98;98565.47;4958632;28;1545;-75
2023/10/12 12:35:59;;;;;;;;;;;;;;;20.58;31.65;98571.97;4974183;28;1626;-74
2023/10/12 12:38:44;;;;;;;;;;;;;;;20.77;31.13;98569.22;4972618;28;1902;-74
2023/10/12 12:41:18;;;;;;;;;;;;;;;20.74;31.01;98558.78;4973013;28;1516;-74
2023/10/12 12:43:44;;;;;;;;;;;;;;;20.72;30.92;98554.78;4957289;28;1522;-74
2023/10/12 12:46:10;;;;;;;;;;;;;;;20.49;31.29;98547.03;4967092;28;1644;-74
2023/10/12 12:48:36;;;;;;;;;;;;;;;20.51;31.45;98555.88;4963256;28;1669;-75
2023/10/12 12:51:01;;;;;;;;;;;;;;;20.81;30.75;98555.84;4984541;28;1534;-73
2023/10/12 12:53:28;;;;;;;;;;;;;;;20.62;30.97;98548.03;4973385;28;1431;-74
2023/10/12 12:55:56;;;;;;;;;;;;;;;20.81;30.45;98550.19;4977173;28;1597;-75
2023/10/12 12:58:24;;;;;;;;;;;;;;;20.91;30.03;98544.81;4961253;28;1902;-75
2023/10/12 13:00:52;;;;;;;;;;;;;;;20.99;29.92;98551.97;4974815;28;1570;-74
2023/10/12 13:03:17;;;;;;;;;;;;;;;20.66;30.57;98551.63;4960586;28;1641;-74
2023/10/12 13:05:43;;;;;;;;;;;;;;;20.77;30.35;98546.59;4977692;28;1577;-75
2023/10/12 13:08:11;;;;;;;;;;;;;;;20.55;30.65;98542.50;4961720;28;1514;-75
2023/10/12 13:10:36;;;;;;;;;;;;;;;20.82;30.02;98536.84;4984406;28;1592;-74
2023/10/12 13:13:02;;;;;;;;;;;;;;;20.54;30.30;98533.22;4975069;28;1521;-74
2023/10/12 13:15:28;;;;;;;;;;;;;;;20.65;30.40;98535.88;4976165;28;1569;-74
2023/10/12 13:17:56;;;;;;;;;;;;;;;20.87;29.67;98532.75;4976147;28;1969;-74
2023/10/12 13:20:21;;;;;;;;;;;;;;;20.75;29.88;98529.28;4959401;28;1649;-75
2023/10/12 13:22:48;;;;;;;;;;;;;;;20.83;29.86;98526.34;4976951;28;1455;-75
2023/10/12 13:25:17;;;;;;;;;;;;;;;20.64;30.08;98525.00;4977976;28;1599;-75
2023/10/12 13:27:49;;;;;;;;;;;;;;;20.35;30.53;98516.09;4957005;28;1681;-75
2023/10/12 13:30:14;;;;;;;;;;;;;;;20.88;29.52;98517.38;4971001;28;1497;-74
2023/10/12 13:32:42;;;;;;;;;;;;;;;20.62;30.00;98513.31;4978005;28;1624;-75
2023/10/12 13:38:09;;;;;;;;;;;;;;;20.52;29.86;98507.41;4938826;28;1899;-75
2023/10/12 13:40:43;;;;;;;;;;;;;;;20.43;30.01;98503.47;4930358;29;1612;-74
2023/10/12 13:43:15;;;;;;;;;;;;;;;20.54;30.21;98495.66;4954429;28;1665;-75
2023/10/12 13:45:50;;;;;;;;;;;;;;;20.52;30.04;98500.94;4954881;28;1657;-74
2023/10/12 13:48:17;;;;;;;;;;;;;;;20.51;29.97;98497.31;4922240;29;1491;-75
2023/10/12 13:50:46;;;;;;;;;;;;;;;20.53;30.09;98492.03;4898304;29;1473;-75
2023/10/12 13:53:13;;;;;;;;;;;;;;;20.57;30.07;98486.31;4913315;29;1516;-75
2023/10/12 13:55:39;;;;;;;;;;;;;;;20.85;29.42;98495.63;4917001;29;1566;-74
2023/10/12 13:58:05;;;;;;;;;;;;;;;20.35;29.98;98485.78;4906198;29;1903;-75
2023/10/12 14:00:34;;;;;;;;;;;;;;;20.29;30.21;98487.50;4905512;29;1383;-74
2023/10/12 14:03:10;;;;;;;;;;;;;;;20.15;30.45;98487.69;4895991;29;1457;-75
2023/10/12 14:05:40;;;;;;;;;;;;;;;20.32;30.16;98488.69;4920649;29;1482;-74
2023/10/12 14:08:08;;;;;;;;;;;;;;;20.71;29.61;98488.94;4905739;29;1476;-74
2023/10/12 14:10:37;;;;;;;;;;;;;;;20.72;29.42;98490.53;4905630;29;1477;-74
2023/10/12 14:13:03;;;;;;;;;;;;;;;20.58;29.64;98479.47;4918972;28;1493;-76
2023/10/12 14:15:29;;;;;;;;;;;;;;;20.65;29.78;98481.38;4978304;28;1514;-74
2023/10/12 14:17:58;;;;;;;;;;;;;;;21.24;29.32;98484.44;4945966;28;1907;-74
2023/10/12 14:20:28;;;;;;;;;;;;;;;21.67;28.91;98488.56;4962069;28;1502;-75
2023/10/12 14:23:05;;;;;;;;;;;;;;;21.46;29.53;98484.88;4943501;29;1458;-75
2023/10/12 14:25:33;;;;;;;;;;;;;;;20.84;30.19;98482.69;4934797;29;1503;-74
2023/10/12 14:28:03;;;;;;;;;;;;;;;20.66;30.34;98478.09;4953315;28;1417;-74
2023/10/12 14:30:29;;;;;;;;;;;;;;;20.50;30.61;98475.13;4976756;28;1552;-75
2023/10/12 14:32:55;;;;;;;;;;;;;;;20.61;30.00;98472.94;4989284;28;1540;-74
2023/10/12 14:35:21;;;;;;;;;;;;;;;20.81;29.78;98475.88;4985074;28;1193;-75
2023/10/12 14:37:46;;;;;;;;;;;;;;;20.90;29.56;98475.31;4976982;28;1975;-74
2023/10/12 14:40:18;;;;;;;;;;;;;;;20.77;29.95;98467.41;4985054;28;1088;-74
2023/10/12 14:42:43;;;;;;;;;;;;;;;20.58;30.21;98470.19;5001009;28;1204;-75
2023/10/12 14:45:09;;;;;;;;;;;;;;;20.33;30.64;98478.97;5001238;28;901;-74
2023/10/12 14:47:35;;;;;;;;;;;;;;;20.58;30.32;98476.63;5000850;28;1117;-74
2023/10/12 14:50:05;;;;;;;;;;;;;;;20.51;30.43;98476.72;5002836;28;1924;-74
2023/10/12 14:52:38;;;;;;;;;;;;;;;20.52;30.16;98483.97;5026058;28;1326;-74
2023/10/12 14:55:10;;;;;;;;;;;;;;;20.23;30.66;98478.69;5037186;28;925;-75
2023/10/12 14:57:38;;;;;;;;;;;;;;;20.41;30.40;98480.47;5007427;28;1989;-74
2023/10/12 15:00:10;;;;;;;;;;;;;;;20.72;29.60;98476.38;4989063;28;1164;-75
2023/10/12 15:02:36;;;;;;;;;;;;;;;20.73;29.94;98472.34;5005894;28;920;-75
2023/10/12 15:05:05;;;;;;;;;;;;;;;20.52;30.21;98472.66;5022731;28;1464;-74
2023/10/12 15:07:31;;;;;;;;;;;;;;;20.61;29.71;98475.75;5031054;28;1568;-75
2023/10/12 15:09:58;;;;;;;;;;;;;;;20.40;30.27;98482.50;5012077;28;1563;-74
2023/10/12 15:12:23;;;;;;;;;;;;;;;20.39;30.35;98480.09;5039165;28;1520;-75
2023/10/12 15:14:50;;;;;;;;;;;;;;;20.81;29.76;98479.47;5021421;28;1762;-74